PWSweather.com
Personal Weather Stations
Station Observations
WATERF01
WaterfordIE

WaterfordIE

Lat: 52.2412507, Lon: -7.1414691

Elevation: 65

Station Type: Davis Vantage Vue

www.waterfordweather.com

High Low Average
Temperature 44.4°F6.9°C 30.3°F-0.9°C 36.0°F2.2°C
Dew Point 43.1°F6.2°C 28.8°F-1.8°C 34.0°F1.1°C
Winds 11.5 mph 18.5 kmh Calm Calm 1.0 mph S1.6 kmh S
Wind Gusts 16.1 mph25.9 kmh -- 2.0 mph3.2 kmh
Humidity 96% 84% 93%
Pressure 30.26 in1024.7 mb 29.35 in993.9 mb -
Precipitation 0.13 in3.3 mm - -
Hour Temp Dew Point Humidity Winds Wind Gusts Pressure Precip Precip Rate Daily Precip Total
12:00 AM 31.6°F-0.2°C 30.1°F-1.1°C 94% Calm Calm 1.2 mph1.9 kmh 30.26 in1024.7 mb - 0.00 in0.0 mm 0.00 in0.0 mm
12:10 AM 31.6°F-0.2°C 30.1°F-1.1°C 94% Calm Calm -- 30.26 in1024.7 mb - 0.00 in0.0 mm 0.00 in0.0 mm
12:20 AM 32.2°F0.1°C 30.9°F-0.6°C 95% Calm Calm -- 30.26 in1024.7 mb - 0.00 in0.0 mm 0.00 in0.0 mm
12:30 AM 32.4°F0.2°C 31.1°F-0.5°C 95% Calm Calm -- 30.26 in1024.7 mb - 0.00 in0.0 mm 0.00 in0.0 mm
12:40 AM 31.9°F-0.1°C 30.4°F-0.9°C 94% Calm Calm -- 30.26 in1024.7 mb - 0.00 in0.0 mm 0.00 in0.0 mm
12:50 AM 32.6°F0.3°C 31.3°F-0.4°C 95% 2.3 mph WNW3.7 kmh WNW 2.3 mph3.7 kmh 30.25 in1024.4 mb - 0.00 in0.0 mm 0.00 in0.0 mm
01:00 AM 33.0°F0.6°C 31.5°F-0.3°C 94% 1.2 mph WNW1.9 kmh WNW 2.3 mph3.7 kmh 30.25 in1024.4 mb - 0.00 in0.0 mm 0.00 in0.0 mm
01:10 AM 33.5°F0.8°C 32.0°F0.0°C 94% 2.3 mph WNW3.7 kmh WNW 2.3 mph3.7 kmh 30.24 in1024.0 mb - 0.00 in0.0 mm 0.00 in0.0 mm
01:20 AM 33.3°F0.7°C 31.5°F-0.3°C 93% Calm Calm -- 30.24 in1024.0 mb - 0.00 in0.0 mm 0.00 in0.0 mm
01:30 AM 33.1°F0.6°C 31.3°F-0.4°C 93% Calm Calm 2.3 mph3.7 kmh 30.25 in1024.4 mb - 0.00 in0.0 mm 0.00 in0.0 mm
01:40 AM 32.7°F0.4°C 30.9°F-0.6°C 93% Calm Calm -- 30.24 in1024.0 mb - 0.00 in0.0 mm 0.00 in0.0 mm
01:50 AM 32.5°F0.3°C 30.7°F-0.7°C 93% Calm Calm -- 30.24 in1024.0 mb - 0.00 in0.0 mm 0.00 in0.0 mm
02:00 AM 32.2°F0.1°C 30.7°F-0.7°C 94% Calm Calm -- 30.24 in1024.0 mb - 0.00 in0.0 mm 0.00 in0.0 mm
02:10 AM 31.0°F-0.6°C 29.2°F-1.6°C 93% Calm Calm -- 30.23 in1023.7 mb - 0.00 in0.0 mm 0.00 in0.0 mm
02:20 AM 30.3°F-0.9°C 28.8°F-1.8°C 94% Calm Calm -- 30.23 in1023.7 mb - 0.00 in0.0 mm 0.00 in0.0 mm
02:30 AM 30.5°F-0.8°C 29.0°F-1.7°C 94% Calm Calm -- 30.23 in1023.7 mb - 0.00 in0.0 mm 0.00 in0.0 mm
02:40 AM 30.7°F-0.7°C 29.4°F-1.4°C 95% Calm Calm -- 30.23 in1023.7 mb - 0.00 in0.0 mm 0.00 in0.0 mm
02:50 AM 30.9°F-0.6°C 29.6°F-1.3°C 95% Calm Calm -- 30.23 in1023.7 mb - 0.00 in0.0 mm 0.00 in0.0 mm
03:00 AM 30.9°F-0.6°C 29.6°F-1.3°C 95% Calm Calm -- 30.22 in1023.4 mb - 0.00 in0.0 mm 0.00 in0.0 mm
03:10 AM 30.4°F-0.9°C 29.1°F-1.6°C 95% Calm Calm -- 30.23 in1023.7 mb - 0.00 in0.0 mm 0.00 in0.0 mm
03:20 AM 30.5°F-0.8°C 29.2°F-1.6°C 95% Calm Calm -- 30.22 in1023.4 mb - 0.00 in0.0 mm 0.00 in0.0 mm
03:30 AM 30.9°F-0.6°C 29.6°F-1.3°C 95% 1.2 mph WSW1.9 kmh WSW 2.3 mph3.7 kmh 30.22 in1023.4 mb - 0.00 in0.0 mm 0.00 in0.0 mm
03:40 AM 30.9°F-0.6°C 29.7°F-1.3°C 95% Calm Calm -- 30.21 in1023.0 mb - 0.00 in0.0 mm 0.00 in0.0 mm
03:50 AM 30.8°F-0.7°C 29.5°F-1.4°C 95% Calm Calm -- 30.21 in1023.0 mb - 0.00 in0.0 mm 0.00 in0.0 mm
04:00 AM 30.9°F-0.6°C 29.6°F-1.3°C 95% Calm Calm -- 30.21 in1023.0 mb - 0.00 in0.0 mm 0.00 in0.0 mm
04:10 AM 30.9°F-0.6°C 29.6°F-1.3°C 95% Calm Calm -- 30.20 in1022.7 mb - 0.00 in0.0 mm 0.00 in0.0 mm
04:20 AM 31.2°F-0.4°C 30.0°F-1.1°C 95% Calm Calm -- 30.20 in1022.7 mb - 0.00 in0.0 mm 0.00 in0.0 mm
04:30 AM 31.6°F-0.2°C 30.3°F-0.9°C 95% Calm Calm -- 30.19 in1022.4 mb - 0.00 in0.0 mm 0.00 in0.0 mm
04:40 AM 31.2°F-0.4°C 29.9°F-1.2°C 95% Calm Calm -- 30.19 in1022.4 mb - 0.00 in0.0 mm 0.00 in0.0 mm
04:50 AM 31.0°F-0.6°C 29.7°F-1.3°C 95% Calm Calm -- 30.19 in1022.4 mb - 0.00 in0.0 mm 0.00 in0.0 mm
05:00 AM 31.1°F-0.5°C 29.8°F-1.2°C 95% Calm Calm -- 30.19 in1022.4 mb - 0.00 in0.0 mm 0.00 in0.0 mm
05:10 AM 31.5°F-0.3°C 30.2°F-1.0°C 95% Calm Calm -- 30.19 in1022.4 mb - 0.00 in0.0 mm 0.00 in0.0 mm
05:20 AM 31.5°F-0.3°C 30.2°F-1.0°C 95% Calm Calm -- 30.18 in1022.0 mb - 0.00 in0.0 mm 0.00 in0.0 mm
05:30 AM 31.4°F-0.3°C 30.1°F-1.1°C 95% Calm Calm -- 30.18 in1022.0 mb - 0.00 in0.0 mm 0.00 in0.0 mm
05:40 AM 31.2°F-0.4°C 29.9°F-1.2°C 95% Calm Calm -- 30.18 in1022.0 mb - 0.00 in0.0 mm 0.00 in0.0 mm
05:50 AM 31.6°F-0.2°C 30.4°F-0.9°C 95% Calm Calm -- 30.18 in1022.0 mb - 0.00 in0.0 mm 0.00 in0.0 mm
06:00 AM 32.0°F0.0°C 30.7°F-0.7°C 95% Calm Calm -- 30.17 in1021.7 mb - 0.00 in0.0 mm 0.00 in0.0 mm
06:10 AM 31.8°F-0.1°C 30.5°F-0.8°C 95% Calm Calm -- 30.17 in1021.7 mb - 0.00 in0.0 mm 0.00 in0.0 mm
06:20 AM 31.6°F-0.2°C 30.3°F-0.9°C 95% Calm Calm -- 30.16 in1021.3 mb - 0.00 in0.0 mm 0.00 in0.0 mm
06:30 AM 31.9°F-0.1°C 30.7°F-0.7°C 95% Calm Calm 1.2 mph1.9 kmh 30.16 in1021.3 mb - 0.00 in0.0 mm 0.00 in0.0 mm
06:40 AM 31.9°F-0.1°C 30.6°F-0.8°C 95% Calm Calm -- 30.16 in1021.3 mb - 0.00 in0.0 mm 0.00 in0.0 mm
06:50 AM 31.8°F-0.1°C 30.5°F-0.8°C 95% Calm Calm -- 30.15 in1021.0 mb - 0.00 in0.0 mm 0.00 in0.0 mm
07:00 AM 32.0°F0.0°C 30.7°F-0.7°C 95% Calm Calm -- 30.15 in1021.0 mb - 0.00 in0.0 mm 0.00 in0.0 mm
07:10 AM 31.9°F-0.1°C 30.6°F-0.8°C 95% Calm Calm -- 30.14 in1020.7 mb - 0.00 in0.0 mm 0.00 in0.0 mm
07:20 AM 32.0°F0.0°C 30.7°F-0.7°C 95% Calm Calm -- 30.14 in1020.7 mb - 0.00 in0.0 mm 0.00 in0.0 mm
07:30 AM 31.7°F-0.2°C 30.4°F-0.9°C 95% Calm Calm -- 30.14 in1020.7 mb - 0.00 in0.0 mm 0.00 in0.0 mm
07:40 AM 31.5°F-0.3°C 30.2°F-1.0°C 95% Calm Calm 1.2 mph1.9 kmh 30.13 in1020.3 mb - 0.00 in0.0 mm 0.00 in0.0 mm
07:50 AM 31.4°F-0.3°C 30.1°F-1.1°C 95% Calm Calm -- 30.13 in1020.3 mb - 0.00 in0.0 mm 0.00 in0.0 mm
08:00 AM 31.7°F-0.2°C 30.4°F-0.9°C 95% Calm Calm -- 30.12 in1020.0 mb - 0.00 in0.0 mm 0.00 in0.0 mm
08:10 AM 31.4°F-0.3°C 30.1°F-1.1°C 95% Calm Calm -- 30.12 in1020.0 mb - 0.00 in0.0 mm 0.00 in0.0 mm
08:20 AM 31.4°F-0.3°C 30.1°F-1.1°C 95% Calm Calm -- 30.11 in1019.6 mb - 0.00 in0.0 mm 0.00 in0.0 mm
08:30 AM 31.1°F-0.5°C 29.9°F-1.2°C 95% Calm Calm -- 30.11 in1019.6 mb - 0.00 in0.0 mm 0.00 in0.0 mm
08:40 AM 31.0°F-0.6°C 30.0°F-1.1°C 96% Calm Calm -- 30.11 in1019.6 mb - 0.00 in0.0 mm 0.00 in0.0 mm
08:50 AM 31.4°F-0.3°C 30.4°F-0.9°C 96% Calm Calm -- 30.10 in1019.3 mb - 0.00 in0.0 mm 0.00 in0.0 mm
09:00 AM 31.3°F-0.4°C 30.3°F-0.9°C 96% Calm Calm -- 30.10 in1019.3 mb - 0.00 in0.0 mm 0.00 in0.0 mm
09:10 AM 31.2°F-0.4°C 30.2°F-1.0°C 96% Calm Calm -- 30.10 in1019.3 mb - 0.00 in0.0 mm 0.00 in0.0 mm
09:20 AM 31.6°F-0.2°C 30.6°F-0.8°C 96% Calm Calm -- 30.10 in1019.3 mb - 0.00 in0.0 mm 0.00 in0.0 mm
09:30 AM 32.3°F0.2°C 31.3°F-0.4°C 96% Calm Calm -- 30.10 in1019.3 mb - 0.00 in0.0 mm 0.00 in0.0 mm
09:40 AM 32.4°F0.2°C 31.4°F-0.3°C 96% Calm Calm -- 30.09 in1019.0 mb - 0.00 in0.0 mm 0.00 in0.0 mm
09:50 AM 32.6°F0.3°C 31.6°F-0.2°C 96% Calm Calm -- 30.09 in1019.0 mb - 0.00 in0.0 mm 0.00 in0.0 mm
10:00 AM 32.8°F0.4°C 31.8°F-0.1°C 96% Calm Calm -- 30.08 in1018.6 mb - 0.00 in0.0 mm 0.00 in0.0 mm
10:10 AM 32.9°F0.5°C 31.6°F-0.2°C 95% Calm Calm -- 30.08 in1018.6 mb - 0.00 in0.0 mm 0.00 in0.0 mm
10:20 AM 33.0°F0.6°C 31.7°F-0.2°C 95% Calm Calm -- 30.07 in1018.3 mb - 0.00 in0.0 mm 0.00 in0.0 mm
10:30 AM 33.2°F0.7°C 31.9°F-0.1°C 95% Calm Calm -- 30.07 in1018.3 mb - 0.00 in0.0 mm 0.00 in0.0 mm
10:40 AM 33.3°F0.7°C 32.0°F0.0°C 95% Calm Calm -- 30.06 in1017.9 mb - 0.00 in0.0 mm 0.00 in0.0 mm
10:50 AM 33.5°F0.8°C 32.2°F0.1°C 95% Calm Calm -- 30.06 in1017.9 mb - 0.00 in0.0 mm 0.00 in0.0 mm
11:00 AM 33.4°F0.8°C 32.1°F0.1°C 95% Calm Calm -- 30.05 in1017.6 mb - 0.00 in0.0 mm 0.00 in0.0 mm
11:10 AM 33.6°F0.9°C 32.3°F0.2°C 95% Calm Calm -- 30.05 in1017.6 mb - 0.00 in0.0 mm 0.00 in0.0 mm
11:20 AM 34.1°F1.2°C 32.8°F0.4°C 95% Calm Calm -- 30.04 in1017.3 mb - 0.00 in0.0 mm 0.00 in0.0 mm
11:30 AM 34.5°F1.4°C 33.2°F0.7°C 95% Calm Calm -- 30.03 in1016.9 mb - 0.00 in0.0 mm 0.00 in0.0 mm
11:40 AM 34.8°F1.6°C 33.5°F0.8°C 95% Calm Calm -- 30.03 in1016.9 mb - 0.00 in0.0 mm 0.00 in0.0 mm
11:50 AM 35.0°F1.7°C 33.4°F0.8°C 94% Calm Calm -- 30.02 in1016.6 mb - 0.00 in0.0 mm 0.00 in0.0 mm
12:00 PM 35.2°F1.8°C 33.6°F0.9°C 94% Calm Calm -- 30.01 in1016.3 mb - 0.00 in0.0 mm 0.00 in0.0 mm
12:10 PM 35.3°F1.8°C 33.7°F0.9°C 94% Calm Calm -- 30.00 in1015.9 mb - 0.00 in0.0 mm 0.00 in0.0 mm
12:20 PM 35.6°F2.0°C 33.8°F1.0°C 93% Calm Calm -- 30.00 in1015.9 mb - 0.00 in0.0 mm 0.00 in0.0 mm
12:30 PM 35.7°F2.1°C 33.6°F0.9°C 92% Calm Calm -- 30.00 in1015.9 mb - 0.00 in0.0 mm 0.00 in0.0 mm
12:40 PM 35.8°F2.1°C 33.7°F0.9°C 92% Calm Calm -- 29.99 in1015.6 mb - 0.00 in0.0 mm 0.00 in0.0 mm
12:50 PM 35.9°F2.2°C 33.5°F0.8°C 91% Calm Calm -- 29.98 in1015.2 mb - 0.00 in0.0 mm 0.00 in0.0 mm
01:00 PM 36.5°F2.5°C 33.9°F1.1°C 90% Calm Calm -- 29.98 in1015.2 mb - 0.00 in0.0 mm 0.00 in0.0 mm
01:10 PM 37.8°F3.2°C 35.4°F1.9°C 91% Calm Calm -- 29.97 in1014.9 mb - 0.00 in0.0 mm 0.00 in0.0 mm
01:20 PM 38.2°F3.4°C 35.5°F1.9°C 90% Calm Calm -- 29.96 in1014.6 mb - 0.00 in0.0 mm 0.00 in0.0 mm
01:30 PM 38.5°F3.6°C 36.1°F2.3°C 91% Calm Calm -- 29.95 in1014.2 mb - 0.00 in0.0 mm 0.00 in0.0 mm
01:40 PM 38.7°F3.7°C 36.3°F2.4°C 91% Calm Calm -- 29.95 in1014.2 mb - 0.00 in0.0 mm 0.00 in0.0 mm
01:50 PM 39.2°F4.0°C 37.1°F2.8°C 92% Calm Calm 1.2 mph1.9 kmh 29.94 in1013.9 mb - 0.00 in0.0 mm 0.00 in0.0 mm
02:00 PM 39.2°F4.0°C 36.5°F2.5°C 90% Calm Calm -- 29.93 in1013.5 mb - 0.00 in0.0 mm 0.00 in0.0 mm
02:10 PM 39.5°F4.2°C 36.8°F2.7°C 90% 2.3 mph E3.7 kmh E 5.8 mph9.3 kmh 29.92 in1013.2 mb - 0.00 in0.0 mm 0.00 in0.0 mm
02:20 PM 39.6°F4.2°C 36.3°F2.4°C 88% Calm Calm 2.3 mph3.7 kmh 29.91 in1012.9 mb - 0.00 in0.0 mm 0.00 in0.0 mm
02:30 PM 39.7°F4.3°C 36.1°F2.3°C 87% Calm Calm -- 29.91 in1012.9 mb - 0.00 in0.0 mm 0.00 in0.0 mm
02:40 PM 39.8°F4.3°C 36.0°F2.2°C 86% Calm Calm -- 29.90 in1012.5 mb - 0.00 in0.0 mm 0.00 in0.0 mm
02:50 PM 39.9°F4.4°C 35.7°F2.1°C 85% Calm Calm -- 29.89 in1012.2 mb - 0.00 in0.0 mm 0.00 in0.0 mm
03:00 PM 39.9°F4.4°C 35.5°F1.9°C 84% Calm Calm -- 29.88 in1011.9 mb - 0.00 in0.0 mm 0.00 in0.0 mm
03:10 PM 40.0°F4.4°C 35.9°F2.2°C 85% Calm Calm -- 29.88 in1011.9 mb - 0.00 in0.0 mm 0.00 in0.0 mm
03:20 PM 40.1°F4.5°C 36.0°F2.2°C 85% Calm Calm -- 29.87 in1011.5 mb - 0.00 in0.0 mm 0.00 in0.0 mm
03:30 PM 40.2°F4.6°C 36.1°F2.3°C 85% Calm Calm 1.2 mph1.9 kmh 29.86 in1011.2 mb - 0.00 in0.0 mm 0.00 in0.0 mm
03:40 PM 40.2°F4.6°C 36.9°F2.7°C 88% 1.2 mph ENE1.9 kmh ENE 4.6 mph7.4 kmh 29.85 in1010.8 mb - 0.00 in0.0 mm 0.00 in0.0 mm
03:50 PM 40.0°F4.4°C 37.0°F2.8°C 89% 1.2 mph E1.9 kmh E 2.3 mph3.7 kmh 29.85 in1010.8 mb - 0.00 in0.0 mm 0.00 in0.0 mm
04:00 PM 39.7°F4.3°C 36.4°F2.4°C 88% Calm Calm 1.2 mph1.9 kmh 29.84 in1010.5 mb - 0.00 in0.0 mm 0.00 in0.0 mm
04:10 PM 39.5°F4.2°C 36.2°F2.3°C 88% Calm Calm -- 29.84 in1010.5 mb - 0.00 in0.0 mm 0.00 in0.0 mm
04:20 PM 39.4°F4.1°C 36.1°F2.3°C 88% 2.3 mph E3.7 kmh E 5.8 mph9.3 kmh 29.84 in1010.5 mb - 0.00 in0.0 mm 0.00 in0.0 mm
04:30 PM 39.3°F4.1°C 35.8°F2.1°C 87% 3.5 mph E5.6 kmh E 5.8 mph9.3 kmh 29.83 in1010.2 mb - 0.00 in0.0 mm 0.00 in0.0 mm
04:40 PM 39.3°F4.1°C 36.0°F2.2°C 88% 2.3 mph E3.7 kmh E 4.6 mph7.4 kmh 29.82 in1009.8 mb - 0.00 in0.0 mm 0.00 in0.0 mm
04:50 PM 39.4°F4.1°C 35.8°F2.1°C 87% 1.2 mph E1.9 kmh E 2.3 mph3.7 kmh 29.80 in1009.1 mb - 0.00 in0.0 mm 0.00 in0.0 mm
05:00 PM 39.3°F4.1°C 35.8°F2.1°C 87% 1.2 mph E1.9 kmh E 4.6 mph7.4 kmh 29.79 in1008.8 mb - 0.00 in0.0 mm 0.00 in0.0 mm
05:10 PM 39.2°F4.0°C 35.7°F2.1°C 87% 1.2 mph ESE1.9 kmh ESE 2.3 mph3.7 kmh 29.79 in1008.8 mb - 0.00 in0.0 mm 0.00 in0.0 mm
05:20 PM 39.2°F4.0°C 35.7°F2.1°C 87% 1.2 mph E1.9 kmh E 2.3 mph3.7 kmh 29.78 in1008.5 mb - 0.00 in0.0 mm 0.00 in0.0 mm
05:30 PM 39.2°F4.0°C 35.7°F2.1°C 87% 1.2 mph E1.9 kmh E 2.3 mph3.7 kmh 29.77 in1008.1 mb - 0.00 in0.0 mm 0.00 in0.0 mm
05:40 PM 39.4°F4.1°C 35.3°F1.8°C 85% 2.3 mph E3.7 kmh E 2.3 mph3.7 kmh 29.77 in1008.1 mb - 0.00 in0.0 mm 0.00 in0.0 mm
05:50 PM 39.3°F4.1°C 35.5°F1.9°C 86% 3.5 mph E5.6 kmh E 5.8 mph9.3 kmh 29.76 in1007.8 mb - 0.00 in0.0 mm 0.00 in0.0 mm
06:00 PM 39.3°F4.1°C 35.5°F1.9°C 86% 3.5 mph E5.6 kmh E 5.8 mph9.3 kmh 29.75 in1007.5 mb - 0.00 in0.0 mm 0.00 in0.0 mm
06:10 PM 39.3°F4.1°C 35.5°F1.9°C 86% 1.2 mph SE1.9 kmh SE 2.3 mph3.7 kmh 29.75 in1007.5 mb - 0.00 in0.0 mm 0.00 in0.0 mm
06:20 PM 39.1°F3.9°C 35.8°F2.1°C 88% Calm Calm -- 29.75 in1007.5 mb - 0.00 in0.0 mm 0.00 in0.0 mm
06:30 PM 39.1°F3.9°C 36.1°F2.3°C 89% 1.2 mph ENE1.9 kmh ENE 4.6 mph7.4 kmh 29.73 in1006.8 mb - 0.00 in0.0 mm 0.00 in0.0 mm
06:40 PM 39.0°F3.9°C 35.7°F2.1°C 88% 2.3 mph E3.7 kmh E 2.3 mph3.7 kmh 29.72 in1006.4 mb - 0.00 in0.0 mm 0.00 in0.0 mm
06:50 PM 38.9°F3.8°C 35.9°F2.2°C 89% 3.5 mph E5.6 kmh E 4.6 mph7.4 kmh 29.71 in1006.1 mb - 0.00 in0.0 mm 0.00 in0.0 mm
07:00 PM 39.0°F3.9°C 36.0°F2.2°C 89% 3.5 mph E5.6 kmh E 5.8 mph9.3 kmh 29.70 in1005.8 mb - 0.00 in0.0 mm 0.00 in0.0 mm
07:10 PM 39.1°F3.9°C 36.4°F2.4°C 90% Calm Calm -- 29.69 in1005.4 mb - 0.00 in0.0 mm 0.00 in0.0 mm
07:20 PM 39.0°F3.9°C 36.3°F2.4°C 90% 1.2 mph E1.9 kmh E 1.2 mph1.9 kmh 29.69 in1005.4 mb - 0.00 in0.0 mm 0.00 in0.0 mm
07:30 PM 39.2°F4.0°C 36.5°F2.5°C 90% 3.5 mph E5.6 kmh E 5.8 mph9.3 kmh 29.68 in1005.1 mb - 0.00 in0.0 mm 0.00 in0.0 mm
07:40 PM 39.0°F3.9°C 36.3°F2.4°C 90% 4.6 mph E7.4 kmh E 5.8 mph9.3 kmh 29.68 in1005.1 mb - 0.00 in0.0 mm 0.00 in0.0 mm
07:50 PM 39.1°F3.9°C 36.7°F2.6°C 91% 1.2 mph E1.9 kmh E 8.1 mph13.0 kmh 29.66 in1004.4 mb - 0.00 in0.0 mm 0.00 in0.0 mm
08:00 PM 39.1°F3.9°C 36.7°F2.6°C 91% 2.3 mph E3.7 kmh E 2.3 mph3.7 kmh 29.65 in1004.1 mb - 0.00 in0.0 mm 0.00 in0.0 mm
08:10 PM 39.4°F4.1°C 37.3°F2.9°C 92% Calm Calm 2.3 mph3.7 kmh 29.65 in1004.1 mb - 0.01 in0.3 mm 0.01 in0.3 mm
08:20 PM 39.7°F4.3°C 37.8°F3.2°C 93% Calm Calm 1.2 mph1.9 kmh 29.63 in1003.4 mb - 0.00 in0.0 mm 0.01 in0.3 mm
08:30 PM 39.3°F4.1°C 37.5°F3.1°C 93% 1.2 mph E1.9 kmh E 4.6 mph7.4 kmh 29.62 in1003.0 mb - 0.00 in0.0 mm 0.01 in0.3 mm
08:40 PM 39.4°F4.1°C 37.6°F3.1°C 93% 1.2 mph E1.9 kmh E 2.3 mph3.7 kmh 29.61 in1002.7 mb - 0.00 in0.0 mm 0.01 in0.3 mm
08:50 PM 41.1°F5.1°C 39.8°F4.3°C 95% 5.8 mph SE9.3 kmh SE 8.1 mph13.0 kmh 29.60 in1002.4 mb - 0.00 in0.0 mm 0.01 in0.3 mm
09:00 PM 42.1°F5.6°C 40.8°F4.9°C 95% 4.6 mph ESE7.4 kmh ESE 8.1 mph13.0 kmh 29.58 in1001.7 mb - 0.00 in0.0 mm 0.01 in0.3 mm
09:10 PM 42.4°F5.8°C 40.8°F4.9°C 94% 5.8 mph ESE9.3 kmh ESE 8.1 mph13.0 kmh 29.57 in1001.4 mb - 0.01 in0.3 mm 0.02 in0.5 mm
09:20 PM 42.5°F5.8°C 40.9°F4.9°C 94% 4.6 mph ESE7.4 kmh ESE 6.9 mph11.1 kmh 29.56 in1001.0 mb - 0.00 in0.0 mm 0.02 in0.5 mm
09:30 PM 42.6°F5.9°C 41.0°F5.0°C 94% 5.8 mph SE9.3 kmh SE 6.9 mph11.1 kmh 29.54 in1000.3 mb - 0.00 in0.0 mm 0.02 in0.5 mm
09:40 PM 42.7°F5.9°C 41.1°F5.1°C 94% 5.8 mph SE9.3 kmh SE 11.5 mph18.5 kmh 29.54 in1000.3 mb - 0.00 in0.0 mm 0.02 in0.5 mm
09:50 PM 43.0°F6.1°C 41.4°F5.2°C 94% 6.9 mph SE11.1 kmh SE 8.1 mph13.0 kmh 29.52 in999.7 mb - 0.00 in0.0 mm 0.02 in0.5 mm
10:00 PM 43.1°F6.2°C 41.5°F5.3°C 94% 6.9 mph SE11.1 kmh SE 11.5 mph18.5 kmh 29.51 in999.3 mb - 0.00 in0.0 mm 0.02 in0.5 mm
10:10 PM 43.1°F6.2°C 41.5°F5.3°C 94% 4.6 mph SE7.4 kmh SE 6.9 mph11.1 kmh 29.49 in998.6 mb - 0.01 in0.3 mm 0.03 in0.8 mm
10:20 PM 43.1°F6.2°C 41.5°F5.3°C 94% 6.9 mph SE11.1 kmh SE 8.1 mph13.0 kmh 29.47 in998.0 mb - 0.00 in0.0 mm 0.03 in0.8 mm
10:30 PM 43.2°F6.2°C 41.6°F5.3°C 94% 11.5 mph SE18.5 kmh SE 16.1 mph25.9 kmh 29.46 in997.6 mb - 0.01 in0.3 mm 0.04 in1.0 mm
10:40 PM 43.4°F6.3°C 41.8°F5.4°C 94% 8.1 mph SE13.0 kmh SE 11.5 mph18.5 kmh 29.45 in997.3 mb - 0.00 in0.0 mm 0.04 in1.0 mm
10:50 PM 43.5°F6.4°C 42.2°F5.7°C 95% 8.1 mph SE13.0 kmh SE 11.5 mph18.5 kmh 29.43 in996.6 mb - 0.01 in0.3 mm 0.05 in1.3 mm
11:00 PM 43.8°F6.6°C 42.5°F5.8°C 95% 11.5 mph SE18.5 kmh SE 12.7 mph20.4 kmh 29.42 in996.3 mb - 0.01 in0.3 mm 0.06 in1.5 mm
11:10 PM 43.9°F6.6°C 42.6°F5.9°C 95% 9.2 mph ESE14.8 kmh ESE 13.8 mph22.2 kmh 29.41 in995.9 mb - 0.00 in0.0 mm 0.06 in1.5 mm
11:20 PM 44.1°F6.7°C 42.8°F6.0°C 95% 10.4 mph ESE16.7 kmh ESE 16.1 mph25.9 kmh 29.39 in995.3 mb - 0.01 in0.3 mm 0.07 in1.8 mm
11:30 PM 44.2°F6.8°C 42.9°F6.1°C 95% 9.2 mph SE14.8 kmh SE 13.8 mph22.2 kmh 29.38 in994.9 mb - 0.01 in0.3 mm 0.08 in2.0 mm
11:40 PM 44.3°F6.8°C 42.9°F6.1°C 95% 6.9 mph SE11.1 kmh SE 9.2 mph14.8 kmh 29.37 in994.6 mb - 0.03 in0.8 mm 0.11 in2.8 mm
11:50 PM 44.4°F6.9°C 43.1°F6.2°C 95% 8.1 mph SE13.0 kmh SE 11.5 mph18.5 kmh 29.35 in993.9 mb - 0.02 in0.5 mm 0.13 in3.3 mm